createdAt,value
2019-03-28T00:01:57.601Z,13.20
2019-03-28T00:04:24.240Z,13.10
2019-03-28T00:06:50.701Z,13.10
2019-03-28T00:09:17.209Z,13.10
2019-03-28T00:11:43.745Z,13.10
2019-03-28T00:14:10.180Z,13.00
2019-03-28T00:16:36.607Z,13.00
2019-03-28T00:19:03.143Z,13.00
2019-03-28T00:21:29.681Z,13.00
2019-03-28T00:23:58.055Z,13.00
2019-03-28T00:26:30.232Z,13.00
2019-03-28T00:28:52.866Z,12.90
2019-03-28T00:31:19.402Z,12.90
2019-03-28T00:33:47.167Z,12.90
2019-03-28T00:36:13.700Z,12.90
2019-03-28T00:38:43.000Z,12.90
2019-03-28T00:41:09.535Z,12.80
2019-03-28T00:43:36.070Z,12.80
2019-03-28T00:46:02.709Z,12.80
2019-03-28T00:48:29.243Z,12.80
2019-03-28T00:50:55.889Z,12.80
2019-03-28T00:53:22.418Z,12.80
2019-03-28T00:55:48.951Z,12.80
2019-03-28T00:58:15.383Z,12.80
2019-03-28T01:00:41.816Z,12.80
2019-03-28T01:03:08.249Z,12.80
2019-03-28T01:05:34.709Z,12.80
2019-03-28T01:08:01.216Z,12.80
2019-03-28T01:10:27.649Z,12.80
2019-03-28T01:12:53.981Z,12.80
2019-03-28T01:15:20.340Z,12.80
2019-03-28T01:17:46.745Z,12.80
2019-03-28T01:20:13.792Z,12.80
2019-03-28T01:22:40.324Z,12.80
2019-03-28T01:25:07.270Z,12.70
2019-03-28T01:27:33.707Z,12.80
2019-03-28T01:30:00.334Z,12.80
2019-03-28T01:32:26.875Z,12.80
2019-03-28T01:34:53.410Z,12.70
2019-03-28T01:37:19.844Z,12.70
2019-03-28T01:39:46.276Z,12.70
2019-03-28T01:42:13.324Z,12.70
2019-03-28T01:44:39.860Z,12.70
2019-03-28T01:47:06.394Z,12.60
2019-03-28T01:49:32.825Z,12.60
2019-03-28T01:51:59.361Z,12.60
2019-03-28T01:54:26.000Z,12.60
2019-03-28T01:56:52.739Z,12.60
2019-03-28T01:59:19.274Z,12.60
2019-03-28T02:01:45.809Z,12.60
2019-03-28T02:04:12.556Z,12.60
2019-03-28T02:06:38.879Z,12.60
2019-03-28T02:09:06.116Z,12.60
2019-03-28T02:11:32.768Z,12.50
2019-03-28T02:13:59.219Z,12.50
2019-03-28T02:16:25.636Z,12.50
2019-03-28T02:18:52.067Z,12.50
2019-03-28T02:21:18.602Z,12.50
2019-03-28T02:23:45.137Z,12.50
2019-03-28T02:26:11.673Z,12.50
2019-03-28T02:28:38.127Z,12.50
2019-03-28T02:31:04.743Z,12.40
2019-03-28T02:33:31.380Z,12.40
2019-03-28T02:35:57.916Z,12.40
2019-03-28T02:38:24.554Z,12.40
2019-03-28T02:40:51.004Z,12.40
2019-03-28T02:43:17.521Z,12.40
2019-03-28T02:45:44.001Z,12.40
2019-03-28T02:48:10.399Z,12.40
2019-03-28T02:50:37.728Z,12.40
2019-03-28T02:53:04.482Z,12.40
2019-03-28T02:55:31.021Z,12.40
2019-03-28T02:57:57.554Z,12.30
2019-03-28T03:00:24.089Z,12.30
2019-03-28T03:02:50.623Z,12.30
2019-03-28T03:05:17.182Z,12.30
2019-03-28T03:07:43.692Z,12.30
2019-03-28T03:10:10.534Z,12.30
2019-03-28T03:12:37.070Z,12.30
2019-03-28T03:15:06.677Z,12.30
2019-03-28T03:17:33.032Z,12.30
2019-03-28T03:19:59.541Z,12.30
2019-03-28T03:22:26.078Z,12.30
2019-03-28T03:24:52.510Z,12.30
2019-03-28T03:27:18.943Z,12.30
2019-03-28T03:29:45.394Z,12.30
2019-03-28T03:32:11.914Z,12.30
2019-03-28T03:34:38.449Z,12.30
2019-03-28T03:37:04.984Z,12.30
2019-03-28T03:39:31.519Z,12.30
2019-03-28T03:41:58.152Z,12.30
2019-03-28T03:44:24.689Z,12.30
2019-03-28T03:46:51.530Z,12.30
2019-03-28T03:49:18.067Z,12.30
2019-03-28T03:51:46.552Z,12.30
2019-03-28T03:54:12.774Z,12.30
2019-03-28T03:56:39.309Z,12.30
2019-03-28T03:59:05.846Z,12.30
2019-03-28T04:01:32.402Z,12.30
2019-03-28T04:03:58.930Z,12.30
2019-03-28T04:06:25.452Z,12.30
2019-03-28T04:08:51.887Z,12.20
2019-03-28T04:11:18.726Z,12.20
2019-03-28T04:13:45.261Z,12.30
2019-03-28T04:16:11.795Z,12.20
2019-03-28T04:18:38.447Z,12.20
2019-03-28T04:21:06.301Z,12.20
2019-03-28T04:23:32.968Z,12.20
2019-03-28T04:25:59.471Z,12.30
2019-03-28T04:28:32.047Z,12.20
2019-03-28T04:30:54.181Z,12.20
2019-03-28T04:33:20.613Z,12.20
2019-03-28T04:35:47.175Z,12.10
2019-03-28T04:38:13.708Z,12.10
2019-03-28T04:40:40.527Z,12.10
2019-03-28T04:43:07.369Z,12.10
2019-03-28T04:45:33.903Z,12.10
2019-03-28T04:48:01.508Z,12.10
2019-03-28T04:50:28.003Z,12.10
2019-03-28T04:52:55.763Z,12.10
2019-03-28T04:55:22.296Z,12.10
2019-03-28T04:57:48.747Z,12.00
2019-03-28T05:00:15.776Z,12.10
2019-03-28T05:02:42.209Z,12.00
2019-03-28T05:05:09.052Z,12.00
2019-03-28T05:07:35.587Z,12.00
2019-03-28T05:10:03.661Z,12.00
2019-03-28T05:12:30.603Z,12.00
2019-03-28T05:14:57.140Z,12.00
2019-03-28T05:17:23.984Z,12.00
2019-03-28T05:19:50.720Z,12.00
2019-03-28T05:22:17.256Z,12.00
2019-03-28T05:24:43.790Z,12.00
2019-03-28T05:27:10.325Z,12.00
2019-03-28T05:29:36.757Z,12.00
2019-03-28T05:32:03.293Z,12.00
2019-03-28T05:34:29.725Z,12.00
2019-03-28T05:36:56.263Z,12.00
2019-03-28T05:39:22.796Z,12.00
2019-03-28T05:41:49.332Z,12.00
2019-03-28T05:44:15.770Z,12.00
2019-03-28T05:46:42.607Z,12.00
2019-03-28T05:49:09.268Z,12.00
2019-03-28T05:51:35.783Z,12.00
2019-03-28T05:54:02.314Z,12.00
2019-03-28T05:56:28.748Z,12.00
2019-03-28T05:58:55.182Z,12.00
2019-03-28T06:01:21.720Z,12.00
2019-03-28T06:03:48.252Z,12.00
2019-03-28T06:06:14.707Z,12.00
2019-03-28T06:08:41.232Z,12.00
2019-03-28T06:11:07.762Z,12.00
2019-03-28T06:13:34.292Z,12.00
2019-03-28T06:16:00.830Z,12.00
2019-03-28T06:18:27.364Z,12.00
2019-03-28T06:20:53.899Z,12.10
2019-03-28T06:23:20.435Z,12.10
2019-03-28T06:25:49.758Z,12.10
2019-03-28T06:28:16.267Z,12.20
2019-03-28T06:30:43.108Z,12.10
2019-03-28T06:33:09.643Z,12.20
2019-03-28T06:35:36.076Z,12.20
2019-03-28T06:38:02.506Z,12.20
2019-03-28T06:40:29.145Z,12.30
2019-03-28T06:42:55.679Z,12.30
2019-03-28T06:45:22.336Z,12.30
2019-03-28T06:47:48.853Z,12.30
2019-03-28T06:50:15.490Z,12.40
2019-03-28T06:52:42.128Z,12.40
2019-03-28T06:55:09.070Z,12.40
2019-03-28T06:57:35.504Z,12.50
2019-03-28T07:00:04.789Z,12.50
2019-03-28T07:02:31.240Z,12.50
2019-03-28T07:04:57.773Z,12.60
2019-03-28T07:07:24.307Z,12.60
2019-03-28T07:09:50.842Z,12.70
2019-03-28T07:12:17.276Z,12.70
2019-03-28T07:14:43.707Z,12.70
2019-03-28T07:17:10.552Z,12.80
2019-03-28T07:19:37.188Z,12.80
2019-03-28T07:22:03.724Z,12.90
2019-03-28T07:24:30.260Z,12.90
2019-03-28T07:26:56.798Z,13.00
2019-03-28T07:29:23.334Z,13.00
2019-03-28T07:31:49.871Z,13.00
2019-03-28T07:34:16.327Z,13.10
2019-03-28T07:36:42.830Z,13.10
2019-03-28T07:39:09.369Z,13.10
2019-03-28T07:41:36.003Z,13.20
2019-03-28T07:44:02.539Z,13.20
2019-03-28T07:46:29.247Z,13.20
2019-03-28T07:48:56.017Z,13.20
2019-03-28T07:51:22.462Z,13.30
2019-03-28T07:53:48.986Z,13.30
2019-03-28T07:56:15.521Z,13.30
2019-03-28T07:58:44.234Z,13.30
2019-03-28T08:01:10.127Z,13.30
2019-03-28T08:03:36.564Z,13.40
2019-03-28T08:06:03.109Z,13.40
2019-03-28T08:08:38.731Z,13.40
2019-03-28T08:10:57.906Z,13.40
2019-03-28T08:13:24.442Z,13.50
2019-03-28T08:15:51.283Z,13.50
2019-03-28T08:18:17.823Z,13.60
2019-03-28T08:20:44.354Z,13.60
2019-03-28T08:23:10.890Z,13.70
2019-03-28T08:25:37.631Z,13.80
2019-03-28T08:28:04.166Z,13.90
2019-03-28T08:30:36.231Z,14.00
2019-03-28T08:33:04.608Z,14.10
2019-03-28T08:35:34.095Z,14.20
2019-03-28T08:38:00.753Z,14.30
2019-03-28T08:40:39.720Z,14.50
2019-03-28T08:43:05.187Z,14.60
2019-03-28T08:45:31.826Z,14.70
2019-03-28T08:47:58.360Z,14.80
2019-03-28T08:50:24.898Z,14.90
2019-03-28T08:52:51.429Z,15.00
2019-03-28T08:55:17.965Z,15.10
2019-03-28T08:57:44.499Z,15.20
2019-03-28T09:00:12.092Z,15.40
2019-03-28T09:02:38.596Z,15.40
2019-03-28T09:05:05.234Z,15.50
2019-03-28T09:07:31.765Z,15.60
2019-03-28T09:09:58.302Z,15.70
2019-03-28T09:12:24.840Z,15.70
2019-03-28T09:14:51.371Z,15.80
2019-03-28T09:17:17.908Z,15.90
2019-03-28T09:19:44.442Z,16.00
2019-03-28T09:22:10.980Z,16.10
2019-03-28T09:24:37.514Z,16.20
2019-03-28T09:27:04.048Z,16.30
2019-03-28T09:29:30.481Z,16.40
2019-03-28T09:31:57.119Z,16.50
2019-03-28T09:34:23.654Z,16.50
2019-03-28T09:36:50.598Z,16.60
2019-03-28T09:39:16.966Z,16.70
2019-03-28T09:41:43.464Z,16.70
2019-03-28T09:44:09.998Z,16.80
2019-03-28T09:46:36.637Z,16.80
2019-03-28T09:49:03.170Z,16.90
2019-03-28T09:51:29.706Z,16.90
2019-03-28T09:53:56.240Z,17.10
2019-03-28T09:56:22.783Z,17.20
2019-03-28T09:58:49.315Z,17.30
2019-03-28T10:01:16.153Z,17.40
2019-03-28T10:03:42.588Z,17.40
2019-03-28T10:06:09.019Z,17.50
2019-03-28T10:08:35.454Z,17.60
2019-03-28T10:11:01.885Z,17.60
2019-03-28T10:13:28.419Z,17.70
2019-03-28T10:15:57.331Z,17.70
2019-03-28T10:18:23.128Z,17.80
2019-03-28T10:20:49.668Z,17.90
2019-03-28T10:23:16.204Z,18.00
2019-03-28T10:25:42.733Z,18.00
2019-03-28T10:28:09.166Z,18.10
2019-03-28T10:30:37.885Z,18.20
2019-03-28T10:33:04.387Z,18.30
2019-03-28T10:35:31.086Z,18.40
2019-03-28T10:37:57.662Z,18.40
2019-03-28T10:40:24.196Z,18.50
2019-03-28T10:42:51.040Z,18.50
2019-03-28T10:45:17.984Z,18.50
2019-03-28T10:47:44.520Z,18.50
2019-03-28T10:50:11.157Z,18.40
2019-03-28T10:52:37.590Z,18.40
2019-03-28T10:55:04.534Z,18.30
2019-03-28T10:57:32.094Z,18.20
2019-03-28T10:59:58.936Z,18.10
2019-03-28T11:02:28.513Z,18.10
2019-03-28T11:04:53.645Z,18.10
2019-03-28T11:07:20.180Z,18.10
2019-03-28T11:09:46.715Z,18.10
2019-03-28T11:12:13.251Z,18.20
2019-03-28T11:14:39.785Z,18.20
2019-03-28T11:17:06.323Z,18.20
2019-03-28T11:19:32.856Z,18.20
2019-03-28T11:21:59.392Z,18.30
2019-03-28T11:24:25.929Z,18.30
2019-03-28T11:26:52.461Z,18.40
2019-03-28T11:29:18.996Z,18.40
2019-03-28T11:31:47.839Z,18.50
2019-03-28T11:34:33.524Z,18.60
2019-03-28T11:36:59.907Z,18.50
2019-03-28T11:39:26.233Z,18.70
2019-03-28T11:41:52.766Z,18.80
2019-03-28T11:44:19.301Z,18.90
2019-03-28T11:46:45.735Z,19.00
2019-03-28T11:49:12.280Z,19.10
2019-03-28T11:51:38.810Z,19.10
2019-03-28T11:54:05.340Z,19.20
2019-03-28T11:56:31.875Z,19.20
2019-03-28T11:58:58.308Z,19.20
2019-03-28T12:01:24.656Z,19.20
2019-03-28T12:03:51.173Z,19.20
2019-03-28T12:06:17.708Z,19.20
2019-03-28T12:08:44.245Z,19.10
2019-03-28T12:11:10.782Z,19.10
2019-03-28T12:13:44.693Z,19.10
2019-03-28T12:16:05.487Z,19.10
2019-03-28T12:18:32.024Z,19.10
2019-03-28T12:20:58.456Z,19.10
2019-03-28T12:23:24.993Z,19.10
2019-03-28T12:25:51.423Z,19.00
2019-03-28T12:28:17.859Z,19.00
2019-03-28T12:30:44.321Z,19.00
2019-03-28T12:33:10.927Z,19.00
2019-03-28T12:35:37.463Z,19.10
2019-03-28T12:38:03.896Z,19.10
2019-03-28T12:40:30.736Z,19.10
2019-03-28T12:42:57.169Z,19.10
2019-03-28T12:45:23.703Z,19.10
2019-03-28T12:47:50.136Z,19.10
2019-03-28T12:50:36.624Z,19.10
2019-03-28T12:53:03.177Z,19.20
2019-03-28T12:55:29.713Z,19.10
2019-03-28T12:57:56.756Z,19.10
2019-03-28T13:00:33.647Z,19.10
2019-03-28T13:03:00.067Z,19.10
2019-03-28T13:05:26.499Z,19.10
2019-03-28T13:07:52.932Z,19.10
2019-03-28T13:10:19.572Z,19.10
2019-03-28T13:12:46.105Z,19.00
2019-03-28T13:15:13.041Z,19.00
2019-03-28T13:17:40.099Z,19.00
2019-03-28T13:20:08.782Z,19.00
2019-03-28T13:22:35.522Z,19.00
2019-03-28T13:25:02.263Z,19.10
2019-03-28T13:27:28.997Z,19.10
2019-03-28T13:29:55.333Z,19.10
2019-03-28T13:32:21.658Z,19.10
2019-03-28T13:34:47.868Z,19.20
2019-03-28T13:37:14.216Z,19.20
2019-03-28T13:39:40.547Z,19.20
2019-03-28T13:42:06.876Z,19.20
2019-03-28T13:44:33.315Z,19.30
2019-03-28T13:46:59.640Z,19.20
2019-03-28T13:49:26.073Z,19.20
2019-03-28T13:51:52.287Z,19.20
2019-03-28T13:54:19.588Z,19.20
2019-03-28T13:56:46.393Z,19.20
2019-03-28T13:59:12.598Z,19.20
2019-03-28T14:01:39.054Z,19.20
2019-03-28T14:04:05.386Z,19.20
2019-03-28T14:06:31.717Z,19.20
2019-03-28T14:08:58.048Z,19.20
2019-03-28T14:11:24.377Z,19.20
2019-03-28T14:13:50.615Z,19.20
2019-03-28T14:16:17.038Z,19.10
2019-03-28T14:18:43.368Z,19.10
2019-03-28T14:21:09.697Z,19.00
2019-03-28T14:23:36.027Z,18.90
2019-03-28T14:26:02.564Z,18.80
2019-03-28T14:28:28.896Z,18.70
2019-03-28T14:30:55.177Z,18.70
2019-03-28T14:33:21.554Z,18.60
2019-03-28T14:35:48.834Z,18.60
2019-03-28T14:38:15.158Z,18.60
2019-03-28T14:40:41.452Z,18.70
2019-03-28T14:43:10.593Z,18.80
2019-03-28T14:45:35.972Z,18.90
2019-03-28T14:48:02.509Z,18.90
2019-03-28T14:50:36.619Z,19.00
2019-03-28T14:53:03.675Z,19.10
2019-03-28T14:55:30.710Z,19.20
2019-03-28T14:57:57.042Z,19.30
2019-03-28T15:00:47.665Z,19.30
2019-03-28T15:03:25.566Z,19.30
2019-03-28T15:05:43.054Z,19.30
2019-03-28T15:08:09.501Z,19.40
2019-03-28T15:10:35.747Z,19.30
2019-03-28T15:13:02.062Z,19.30
2019-03-28T15:15:28.354Z,19.30
2019-03-28T15:17:54.742Z,19.30
2019-03-28T15:20:21.149Z,19.20
2019-03-28T15:22:47.480Z,19.10
2019-03-28T15:25:13.773Z,19.10
2019-03-28T15:27:40.143Z,19.00
2019-03-28T15:30:06.890Z,19.00
2019-03-28T15:32:33.315Z,18.90
2019-03-28T15:35:00.601Z,18.80
2019-03-28T15:37:26.998Z,18.70
2019-03-28T15:39:53.258Z,18.60
2019-03-28T15:42:19.555Z,18.50
2019-03-28T15:44:45.886Z,18.40
2019-03-28T15:47:12.216Z,18.30
2019-03-28T15:49:38.469Z,18.10
2019-03-28T15:52:05.230Z,18.10
2019-03-28T15:54:31.828Z,17.90
2019-03-28T15:56:58.682Z,17.80
2019-03-28T15:59:25.217Z,17.80
2019-03-28T16:01:51.529Z,17.60
2019-03-28T16:04:17.859Z,17.60
2019-03-28T16:06:44.159Z,17.50
2019-03-28T16:09:10.520Z,17.50
2019-03-28T16:11:36.852Z,17.40
2019-03-28T16:14:03.284Z,17.40
2019-03-28T16:16:29.718Z,17.30
2019-03-28T16:18:56.049Z,17.30
2019-03-28T16:21:22.684Z,17.30
2019-03-28T16:23:49.026Z,17.20
2019-03-28T16:26:15.350Z,17.20
2019-03-28T16:28:41.690Z,17.10
2019-03-28T16:31:08.008Z,17.10
2019-03-28T16:33:34.304Z,17.10
2019-03-28T16:36:00.662Z,17.00
2019-03-28T16:38:26.995Z,17.00
2019-03-28T16:40:53.354Z,17.00
2019-03-28T16:43:19.761Z,16.90
2019-03-28T16:45:46.076Z,16.90
2019-03-28T16:48:12.746Z,16.90
2019-03-28T16:50:39.165Z,16.90
2019-03-28T16:53:05.591Z,16.80
2019-03-28T16:55:31.891Z,16.80
2019-03-28T16:57:58.258Z,16.80
2019-03-28T17:00:44.389Z,16.70
2019-03-28T17:03:10.784Z,16.60
2019-03-28T17:05:37.894Z,16.70
2019-03-28T17:08:04.574Z,16.60
2019-03-28T17:10:34.685Z,16.60
2019-03-28T17:13:01.131Z,16.60
2019-03-28T17:15:27.449Z,16.50
2019-03-28T17:17:53.778Z,16.50
2019-03-28T17:20:20.107Z,16.50
2019-03-28T17:22:46.329Z,16.40
2019-03-28T17:25:12.633Z,16.40
2019-03-28T17:27:38.934Z,16.30
2019-03-28T17:30:07.309Z,16.30
2019-03-28T17:32:36.579Z,16.20
2019-03-28T17:35:02.371Z,16.20
2019-03-28T17:37:29.540Z,16.10
2019-03-28T17:39:55.870Z,16.10
2019-03-28T17:42:22.071Z,16.10
2019-03-28T17:44:48.533Z,16.00
2019-03-28T17:47:14.967Z,15.90
2019-03-28T17:49:41.614Z,15.90
2019-03-28T17:52:11.022Z,15.90
2019-03-28T17:54:37.794Z,15.80
2019-03-28T17:57:04.277Z,15.80
2019-03-28T17:59:30.608Z,15.70
2019-03-28T18:01:57.063Z,15.70
2019-03-28T18:04:23.803Z,15.70
2019-03-28T18:06:50.226Z,15.60
2019-03-28T18:09:16.755Z,15.60
2019-03-28T18:11:43.248Z,15.50
2019-03-28T18:14:09.614Z,15.40
2019-03-28T18:16:35.953Z,15.30
2019-03-28T18:19:02.319Z,15.30
2019-03-28T18:21:28.599Z,15.20
2019-03-28T18:23:54.935Z,15.10
2019-03-28T18:26:21.367Z,15.10
2019-03-28T18:28:47.598Z,15.00
2019-03-28T18:31:14.030Z,14.80
2019-03-28T18:33:40.464Z,14.80
2019-03-28T18:36:06.809Z,14.70
2019-03-28T18:38:33.126Z,14.60
2019-03-28T18:40:59.453Z,14.50
2019-03-28T18:43:25.670Z,14.40
2019-03-28T18:45:52.014Z,14.30
2019-03-28T18:48:29.098Z,14.30
2019-03-28T18:50:47.326Z,14.10
2019-03-28T18:53:13.664Z,14.00
2019-03-28T18:55:40.099Z,13.90
2019-03-28T18:58:06.529Z,13.80
2019-03-28T19:00:32.949Z,13.80
2019-03-28T19:03:00.230Z,13.60
2019-03-28T19:05:26.557Z,13.60
2019-03-28T19:07:53.011Z,13.50
2019-03-28T19:10:19.510Z,13.40
2019-03-28T19:12:45.944Z,13.30
2019-03-28T19:15:12.540Z,13.20
2019-03-28T19:17:38.911Z,13.10
2019-03-28T19:20:07.401Z,13.00
2019-03-28T19:22:33.827Z,12.90
2019-03-28T19:25:00.357Z,12.90
2019-03-28T19:27:30.037Z,12.80
2019-03-28T19:29:55.069Z,12.70
2019-03-28T19:32:21.445Z,12.60
2019-03-28T19:34:49.061Z,12.50
2019-03-28T19:37:15.887Z,12.40
2019-03-28T19:39:42.248Z,12.30
2019-03-28T19:42:10.612Z,12.30
2019-03-28T19:44:37.150Z,12.20
2019-03-28T19:47:03.840Z,12.20
2019-03-28T19:51:56.817Z,12.00
2019-03-28T19:54:23.179Z,12.00
2019-03-28T19:56:49.525Z,11.90
2019-03-28T19:59:15.846Z,11.90
2019-03-28T20:01:42.175Z,11.80
2019-03-28T20:04:08.506Z,11.80
2019-03-28T20:06:34.942Z,11.70
2019-03-28T20:09:15.401Z,11.70
2019-03-28T20:11:29.980Z,11.60
2019-03-28T20:13:56.390Z,11.60
2019-03-28T20:16:22.706Z,11.50
2019-03-28T20:18:49.119Z,11.50
2019-03-28T20:21:15.487Z,11.40
2019-03-28T20:23:41.809Z,11.30
2019-03-28T20:26:08.142Z,11.30
2019-03-28T20:28:34.591Z,11.20
2019-03-28T20:31:00.932Z,11.10
2019-03-28T20:33:27.336Z,11.10
2019-03-28T20:36:11.648Z,11.00
2019-03-28T20:38:21.740Z,11.00
2019-03-28T20:40:48.281Z,10.90
2019-03-28T20:43:14.911Z,10.80
2019-03-28T20:45:41.462Z,10.80
2019-03-28T20:48:07.902Z,10.70
2019-03-28T20:50:34.457Z,10.70
2019-03-28T20:53:00.726Z,10.60
2019-03-28T20:55:27.018Z,10.60
2019-03-28T20:57:53.448Z,10.50
2019-03-28T21:00:39.121Z,10.50
2019-03-28T21:03:05.727Z,10.40
2019-03-28T21:05:32.042Z,10.30
2019-03-28T21:07:58.441Z,10.30
2019-03-28T21:10:24.679Z,10.30
2019-03-28T21:12:52.200Z,10.20
2019-03-28T21:15:19.715Z,10.20
2019-03-28T21:17:46.102Z,10.10
2019-03-28T21:20:12.458Z,10.10
2019-03-28T21:22:38.864Z,10.10
2019-03-28T21:25:06.028Z,10.00
2019-03-28T21:27:33.059Z,9.90
2019-03-28T21:29:59.729Z,9.90
2019-03-28T21:32:26.131Z,9.80
2019-03-28T21:34:54.865Z,9.80
2019-03-28T21:37:20.634Z,9.80
2019-03-28T21:39:46.967Z,9.70
2019-03-28T21:42:13.270Z,9.70
2019-03-28T21:44:39.632Z,9.60
2019-03-28T21:47:05.868Z,9.60
2019-03-28T21:49:32.198Z,9.50
2019-03-28T21:51:58.616Z,9.50
2019-03-28T21:54:26.586Z,9.50
2019-03-28T21:56:53.022Z,9.40
2019-03-28T21:59:19.453Z,9.30
2019-03-28T22:01:45.783Z,9.30
2019-03-28T22:04:12.112Z,9.30
2019-03-28T22:06:43.155Z,9.30
2019-03-28T22:09:06.723Z,9.20
2019-03-28T22:11:32.950Z,9.20
2019-03-28T22:13:59.277Z,9.10
2019-03-28T22:16:25.523Z,9.10
2019-03-28T22:18:51.936Z,9.10
2019-03-28T22:21:18.266Z,9.10
2019-03-28T22:23:44.568Z,9.00
2019-03-28T22:26:11.158Z,9.00
2019-03-28T22:28:38.117Z,8.90
2019-03-28T22:31:04.976Z,8.90
2019-03-28T22:33:31.456Z,8.90
2019-03-28T22:35:57.814Z,8.90
2019-03-28T22:38:24.129Z,8.80
2019-03-28T22:40:50.746Z,8.80
2019-03-28T22:43:17.051Z,8.80
2019-03-28T22:45:43.905Z,8.80
2019-03-28T22:48:11.457Z,8.70
2019-03-28T22:50:38.701Z,8.70
2019-03-28T22:53:05.385Z,8.70
2019-03-28T22:55:31.891Z,8.60
2019-03-28T22:57:58.574Z,8.60
2019-03-28T23:00:44.897Z,8.60
2019-03-28T23:03:12.406Z,8.50
2019-03-28T23:05:38.736Z,8.50
2019-03-28T23:08:05.065Z,8.40
2019-03-28T23:10:31.395Z,8.40
2019-03-28T23:12:57.828Z,8.40
2019-03-28T23:15:25.803Z,8.30
2019-03-28T23:17:52.128Z,8.20
2019-03-28T23:20:18.462Z,8.20
2019-03-28T23:22:45.120Z,8.20
2019-03-28T23:25:11.528Z,8.10
2019-03-28T23:27:37.813Z,8.10
2019-03-28T23:30:06.625Z,8.10
2019-03-28T23:32:32.982Z,8.10
2019-03-28T23:34:59.308Z,8.00
2019-03-28T23:37:26.805Z,7.90
2019-03-28T23:39:53.413Z,7.90
2019-03-28T23:42:19.731Z,7.90
2019-03-28T23:44:46.063Z,7.90
2019-03-28T23:47:12.726Z,7.80
2019-03-28T23:49:40.610Z,7.80
2019-03-28T23:52:07.206Z,7.80
2019-03-28T23:54:33.540Z,7.80
2019-03-28T23:56:59.813Z,7.80
2019-03-28T23:59:26.194Z,7.80
